Time;durP1;ratioP1;P1;durP2;ratioP2;P2;SDS_P1;SDS_P2;PMS_P1;PMS_P2;Temp;Humidity;BMP_temperature;BMP_pressure;BME280_temperature;BME280_humidity;BME280_pressure;Samples;Min_cycle;Max_cycle;Signal;HPM_P1;HPM_P2
2023/09/01 00:01:48;;;;;;;4.30;1.65;;;13.50;99.90;;;;;;5037125;28;20048;-78
2023/09/01 00:04:14;;;;;;;1.67;1.35;;;13.50;99.90;;;;;;5037235;28;20028;-78
2023/09/01 00:06:39;;;;;;;1.50;1.40;;;13.50;99.90;;;;;;5018933;28;20021;-77
2023/09/01 00:09:05;;;;;;;1.48;1.38;;;13.50;99.90;;;;;;5018859;28;20039;-77
2023/09/01 00:11:31;;;;;;;1.55;1.45;;;13.50;99.90;;;;;;5018783;28;20422;-77
2023/09/01 00:13:56;;;;;;;4.00;1.45;;;13.50;99.90;;;;;;5019039;28;20060;-77
2023/09/01 00:16:22;;;;;;;2.83;1.40;;;13.50;99.90;;;;;;5019003;28;20613;-77
2023/09/01 00:18:48;;;;;;;1.40;1.30;;;13.50;99.90;;;;;;5036685;28;20050;-78
2023/09/01 00:21:13;;;;;;;1.30;1.20;;;13.60;99.90;;;;;;5019003;28;20021;-78
2023/09/01 00:23:40;;;;;;;1.48;1.33;;;13.60;99.90;;;;;;5036557;28;20021;-77
2023/09/01 00:26:06;;;;;;;1.50;1.40;;;13.60;99.90;;;;;;5018874;28;20029;-77
2023/09/01 00:28:31;;;;;;;1.63;1.20;;;13.60;99.90;;;;;;5036230;28;20565;-77
2023/09/01 00:30:59;;;;;;;1.17;1.00;;;13.60;99.90;;;;;;5018057;28;20029;-77
2023/09/01 00:33:29;;;;;;;1.50;1.30;;;13.60;99.90;;;;;;5036224;28;20492;-77
2023/09/01 00:35:56;;;;;;;1.20;1.10;;;13.60;99.90;;;;;;5035761;28;20030;-77
2023/09/01 00:38:24;;;;;;;1.52;1.38;;;13.60;99.90;;;;;;5035712;28;20029;-78
2023/09/01 00:40:50;;;;;;;2.83;1.05;;;13.60;99.90;;;;;;5016961;28;20026;-76
2023/09/01 00:43:16;;;;;;;1.38;1.27;;;13.60;99.90;;;;;;5016711;28;20032;-76
2023/09/01 00:45:42;;;;;;;2.70;1.58;;;13.60;99.90;;;;;;5034495;28;20026;-76
2023/09/01 00:48:08;;;;;;;2.72;1.15;;;13.70;99.90;;;;;;5016339;28;20026;-76
2023/09/01 00:50:37;;;;;;;1.83;1.42;;;13.60;99.90;;;;;;5034334;28;20021;-76
2023/09/01 00:53:05;;;;;;;3.42;1.58;;;13.70;99.90;;;;;;5034398;28;20057;-75
2023/09/01 00:55:32;;;;;;;1.50;1.40;;;13.70;99.90;;;;;;5016626;28;20021;-75
2023/09/01 00:57:58;;;;;;;4.10;1.55;;;13.70;99.90;;;;;;5033776;28;20430;-75
2023/09/01 01:00:24;;;;;;;3.17;1.40;;;13.60;99.90;;;;;;5016130;28;20080;-75
2023/09/01 01:02:50;;;;;;;2.28;1.52;;;13.70;99.90;;;;;;5034287;28;20030;-76
2023/09/01 01:05:18;;;;;;;1.80;1.63;;;13.70;99.90;;;;;;5016534;28;20025;-74
2023/09/01 01:08:12;;;;;;;2.63;2.38;;;13.70;99.90;;;;;;5034154;28;20025;-74
2023/09/01 01:10:59;;;;;;;2.17;1.35;;;13.70;99.90;;;;;;5024970;28;20041;-75
2023/09/01 01:13:28;;;;;;;1.40;1.20;;;13.70;99.90;;;;;;5034264;28;20128;-76
2023/09/01 01:15:55;;;;;;;3.10;1.30;;;13.70;99.90;;;;;;5016285;28;20030;-75
2023/09/01 01:18:24;;;;;;;3.40;1.50;;;13.70;99.90;;;;;;5033533;28;20108;-76
2023/09/01 01:20:55;;;;;;;4.05;1.38;;;13.70;99.90;;;;;;5033744;28;20479;-77
2023/09/01 01:23:21;;;;;;;1.27;1.13;;;13.70;99.90;;;;;;5016198;28;20109;-76
2023/09/01 01:25:49;;;;;;;1.40;1.20;;;13.80;99.90;;;;;;5033783;28;20017;-76
2023/09/01 01:28:15;;;;;;;4.88;1.88;;;13.80;99.90;;;;;;5033521;28;20108;-77
2023/09/01 01:30:41;;;;;;;5.50;2.20;;;13.80;99.90;;;;;;5033666;28;20021;-77
2023/09/01 01:33:33;;;;;;;2.53;1.27;;;13.70;99.90;;;;;;5015978;28;20160;-76
2023/09/01 01:36:37;;;;;;;2.22;1.45;;;13.70;99.90;;;;;;5033457;28;20029;-77
2023/09/01 01:39:10;;;;;;;1.45;1.35;;;13.80;99.90;;;;;;4933901;29;20426;-75
2023/09/01 01:41:53;;;;;;;1.85;1.38;;;13.80;99.90;;;;;;4933665;29;20023;-76
2023/09/01 01:44:25;;;;;;;1.88;1.77;;;13.80;99.90;;;;;;4996933;28;20484;-77
2023/09/01 01:46:51;;;;;;;4.28;1.20;;;13.80;99.90;;;;;;5015773;28;20063;-77
2023/09/01 01:49:18;;;;;;;1.60;1.48;;;13.80;99.90;;;;;;5015429;28;20025;-75
2023/09/01 01:51:44;;;;;;;1.75;1.33;;;13.80;99.90;;;;;;5015518;28;20029;-76
2023/09/01 01:54:09;;;;;;;2.95;1.20;;;13.80;99.90;;;;;;5033426;28;20044;-76
2023/09/01 01:56:35;;;;;;;2.45;1.52;;;13.80;99.90;;;;;;5015589;28;20083;-76
2023/09/01 01:59:04;;;;;;;1.35;1.20;;;13.80;99.90;;;;;;5015206;28;20074;-78
2023/09/01 02:01:33;;;;;;;1.73;1.52;;;13.80;99.90;;;;;;5015497;28;20036;-78
2023/09/01 02:03:58;;;;;;;1.65;1.48;;;13.80;99.90;;;;;;5032885;28;20033;-76
2023/09/01 02:06:24;;;;;;;4.45;1.40;;;13.80;99.90;;;;;;5033240;28;20025;-77
2023/09/01 02:08:50;;;;;;;3.35;1.88;;;13.80;99.90;;;;;;5015113;28;20037;-78
2023/09/01 02:11:15;;;;;;;1.75;1.27;;;13.80;99.90;;;;;;5033074;28;20025;-76
2023/09/01 02:13:44;;;;;;;2.22;1.30;;;13.90;99.90;;;;;;5033263;28;20029;-78
2023/09/01 02:16:09;;;;;;;1.30;1.20;;;13.90;99.90;;;;;;5015419;28;20033;-76
2023/09/01 02:18:35;;;;;;;2.75;1.60;;;13.90;99.90;;;;;;5032697;28;20087;-76
2023/09/01 02:21:01;;;;;;;2.10;1.55;;;13.90;99.90;;;;;;5033245;28;20387;-78
2023/09/01 02:23:27;;;;;;;4.70;1.52;;;13.90;99.90;;;;;;5032971;28;20057;-75
2023/09/01 02:25:52;;;;;;;8.63;1.40;;;13.90;99.90;;;;;;5033061;28;20032;-76
2023/09/01 02:28:18;;;;;;;1.75;1.50;;;13.90;99.90;;;;;;5032836;28;20025;-77
2023/09/01 02:30:43;;;;;;;3.10;2.13;;;13.90;99.90;;;;;;5033133;28;20454;-76
2023/09/01 02:33:09;;;;;;;2.72;1.50;;;13.90;99.90;;;;;;5033036;28;20027;-77
2023/09/01 02:35:42;;;;;;;1.40;1.30;;;13.90;99.90;;;;;;5015337;28;20041;-78
2023/09/01 02:38:07;;;;;;;2.67;1.58;;;13.80;99.90;;;;;;5033342;28;20021;-79
2023/09/01 02:40:33;;;;;;;2.97;1.45;;;13.80;99.90;;;;;;5016076;28;20124;-78
2023/09/01 02:42:59;;;;;;;2.10;1.50;;;13.80;99.90;;;;;;5034055;28;20026;-75
2023/09/01 02:45:24;;;;;;;1.85;1.67;;;13.80;99.90;;;;;;5033930;28;20021;-77
2023/09/01 02:47:50;;;;;;;1.75;1.30;;;13.80;99.90;;;;;;5033466;28;20478;-76
2023/09/01 02:50:16;;;;;;;3.10;1.55;;;13.70;99.90;;;;;;5016087;28;20163;-78
2023/09/01 02:52:42;;;;;;;1.83;1.40;;;13.70;99.90;;;;;;5033377;28;20063;-77
2023/09/01 02:55:08;;;;;;;1.58;1.40;;;13.60;99.90;;;;;;5016274;28;20033;-78
2023/09/01 02:57:35;;;;;;;1.73;1.35;;;13.70;99.90;;;;;;5016601;28;20025;-80
2023/09/01 03:00:00;;;;;;;1.85;1.58;;;13.70;99.90;;;;;;5034420;28;20013;-78
2023/09/01 03:02:26;;;;;;;1.25;1.15;;;13.70;99.90;;;;;;5017569;28;20037;-77
2023/09/01 03:04:56;;;;;;;1.52;1.38;;;13.70;99.90;;;;;;5018016;28;20018;-77
2023/09/01 03:07:23;;;;;;;2.53;1.60;;;13.60;99.90;;;;;;5018129;28;20105;-81
2023/09/01 03:09:49;;;;;;;1.60;1.50;;;13.70;99.90;;;;;;5036429;28;20022;-77
2023/09/01 03:12:15;;;;;;;3.90;1.67;;;13.70;99.90;;;;;;5036747;28;20029;-78
2023/09/01 03:14:40;;;;;;;5.03;1.42;;;13.70;99.90;;;;;;5036630;28;20021;-82
2023/09/01 03:17:06;;;;;;;1.42;1.30;;;13.80;99.90;;;;;;5036249;28;20097;-79
2023/09/01 03:19:32;;;;;;;1.48;1.30;;;13.80;99.90;;;;;;5018124;28;20506;-77
2023/09/01 03:21:58;;;;;;;1.33;1.23;;;13.80;99.90;;;;;;5036404;28;20032;-78
2023/09/01 03:24:23;;;;;;;1.92;1.60;;;13.90;99.90;;;;;;5018556;28;20022;-78
2023/09/01 03:26:49;;;;;;;2.83;1.70;;;13.90;99.90;;;;;;5018163;28;20018;-79
2023/09/01 03:29:14;;;;;;;1.50;1.40;;;13.90;99.90;;;;;;5018214;28;20442;-77
2023/09/01 03:31:40;;;;;;;1.70;1.60;;;13.90;99.90;;;;;;5035852;28;20032;-81
2023/09/01 03:34:07;;;;;;;3.20;1.30;;;13.90;99.90;;;;;;5036817;28;20112;-80
2023/09/01 03:36:33;;;;;;;2.80;1.40;;;13.90;99.90;;;;;;5018641;28;20040;-78
2023/09/01 03:38:59;;;;;;;1.42;1.27;;;14.00;99.90;;;;;;5036875;28;20454;-79
2023/09/01 03:41:25;;;;;;;1.33;1.23;;;14.00;99.90;;;;;;5037157;28;20092;-80
2023/09/01 03:43:50;;;;;;;6.15;1.88;;;14.00;99.90;;;;;;5038530;28;20037;-80
2023/09/01 03:46:16;;;;;;;2.15;1.33;;;14.00;99.90;;;;;;5037170;28;20032;-81
2023/09/01 03:48:41;;;;;;;2.22;1.48;;;13.90;99.90;;;;;;5019038;28;20392;-81
2023/09/01 03:51:14;;;;;;;1.88;1.55;;;13.90;99.90;;;;;;5037912;28;20168;-80
2023/09/01 03:53:40;;;;;;;1.40;1.30;;;13.90;99.90;;;;;;5020406;28;20029;-80
2023/09/01 03:56:17;;;;;;;2.63;1.05;;;14.00;99.90;;;;;;5038867;28;20152;-80
2023/09/01 03:58:43;;;;;;;3.03;1.67;;;14.00;99.90;;;;;;5038139;28;20033;-80
2023/09/01 04:01:11;;;;;;;1.90;1.60;;;14.00;99.90;;;;;;5037978;28;20029;-81
2023/09/01 04:03:38;;;;;;;3.35;1.17;;;14.00;99.90;;;;;;5039961;28;20017;-80
2023/09/01 04:06:05;;;;;;;4.55;1.63;;;14.00;99.90;;;;;;5041842;28;20026;-80
2023/09/01 04:08:31;;;;;;;1.52;1.42;;;14.00;99.90;;;;;;5042369;28;20044;-80
2023/09/01 04:10:57;;;;;;;1.50;1.40;;;14.00;99.90;;;;;;5047105;28;20085;-80
2023/09/01 04:13:22;;;;;;;5.22;1.25;;;13.90;99.90;;;;;;5048046;28;20499;-80
2023/09/01 04:15:49;;;;;;;5.68;1.63;;;14.00;99.90;;;;;;5042558;28;20052;-79
2023/09/01 04:18:15;;;;;;;1.48;1.38;;;14.00;99.90;;;;;;5037520;28;20029;-78
2023/09/01 04:20:49;;;;;;;4.80;1.77;;;14.00;99.90;;;;;;5037388;28;20561;-79
2023/09/01 04:23:15;;;;;;;2.17;1.80;;;14.00;99.90;;;;;;5020751;28;20021;-80
2023/09/01 04:25:45;;;;;;;3.20;1.88;;;14.10;99.90;;;;;;5038094;28;20097;-80
2023/09/01 04:28:11;;;;;;;2.97;1.92;;;14.10;99.90;;;;;;5020173;28;20041;-80
2023/09/01 04:30:37;;;;;;;7.38;3.28;;;14.10;99.90;;;;;;5040229;28;20029;-80
2023/09/01 04:33:06;;;;;;;6.53;2.63;;;14.20;99.90;;;;;;5024055;28;20025;-79
2023/09/01 04:35:32;;;;;;;5.43;2.25;;;14.20;99.90;;;;;;5021568;28;20387;-79
2023/09/01 04:37:58;;;;;;;1.65;1.45;;;14.20;99.90;;;;;;5022535;28;20029;-77
2023/09/01 04:40:25;;;;;;;3.25;2.55;;;15.40;99.90;;;;;;5035054;28;20025;-77
2023/09/01 04:42:50;;;;;;;2.50;2.17;;;16.10;99.90;;;;;;5035838;28;20025;-76
2023/09/01 04:45:16;;;;;;;2.72;2.30;;;16.40;99.90;;;;;;5037713;28;20496;-77
2023/09/01 04:47:42;;;;;;;2.92;2.17;;;17.00;99.90;;;;;;5050920;28;20021;-77
2023/09/01 04:50:08;;;;;;;3.50;2.50;;;17.00;99.90;;;;;;5038190;28;20064;-77
2023/09/01 04:52:33;;;;;;;3.92;2.00;;;17.00;99.90;;;;;;5040791;28;20576;-78
2023/09/01 04:54:59;;;;;;;2.45;1.67;;;17.00;99.90;;;;;;5040175;28;20390;-78
2023/09/01 04:57:25;;;;;;;2.05;1.83;;;17.30;99.90;;;;;;5055713;28;20025;-78
2023/09/01 04:59:50;;;;;;;4.80;2.05;;;17.30;99.90;;;;;;5056609;28;20035;-76
2023/09/01 05:02:17;;;;;;;4.68;3.58;;;17.10;99.90;;;;;;5056092;28;20049;-77
2023/09/01 05:04:42;;;;;;;5.57;3.10;;;17.20;99.90;;;;;;5055968;28;20486;-77
2023/09/01 05:07:08;;;;;;;2.13;1.95;;;17.40;99.90;;;;;;5056428;28;20025;-77
2023/09/01 05:09:33;;;;;;;1.98;1.75;;;17.20;99.90;;;;;;5056018;28;20025;-78
2023/09/01 05:11:59;;;;;;;3.20;2.35;;;17.20;99.90;;;;;;5056018;28;20032;-78
2023/09/01 05:14:25;;;;;;;1.83;1.73;;;17.00;99.90;;;;;;5054301;28;20025;-78
2023/09/01 05:16:51;;;;;;;1.55;1.45;;;16.80;99.90;;;;;;5055807;28;20028;-78
2023/09/01 05:19:16;;;;;;;3.10;1.75;;;16.90;99.90;;;;;;5055725;28;20017;-78
2023/09/01 05:21:42;;;;;;;3.55;1.45;;;16.60;99.90;;;;;;5055593;28;20093;-78
2023/09/01 05:24:08;;;;;;;1.70;1.35;;;16.70;99.90;;;;;;5032403;28;20018;-77
2023/09/01 05:26:34;;;;;;;4.22;2.60;;;16.60;99.90;;;;;;5017791;28;20032;-77
2023/09/01 05:29:00;;;;;;;1.98;1.77;;;16.80;99.90;;;;;;5035633;28;20025;-78
2023/09/01 05:31:26;;;;;;;2.28;1.92;;;17.00;99.90;;;;;;5036225;28;20041;-77
2023/09/01 05:33:51;;;;;;;2.28;1.50;;;16.70;99.90;;;;;;5018119;28;20053;-77
2023/09/01 05:36:17;;;;;;;2.05;1.45;;;16.50;99.90;;;;;;5035626;28;20534;-76
2023/09/01 05:38:42;;;;;;;5.60;1.77;;;16.20;99.90;;;;;;5017202;28;20541;-76
2023/09/01 05:41:10;;;;;;;1.92;1.52;;;15.80;99.90;;;;;;5035478;28;20028;-76
2023/09/01 05:43:36;;;;;;;3.30;1.33;;;15.60;99.90;;;;;;5035798;28;20510;-78
2023/09/01 05:46:02;;;;;;;1.30;1.20;;;15.50;99.90;;;;;;5035455;28;20025;-78
2023/09/01 05:48:27;;;;;;;1.23;1.13;;;15.60;99.90;;;;;;5035281;28;20021;-76
2023/09/01 05:50:53;;;;;;;1.13;1.02;;;15.50;99.90;;;;;;5017932;28;20033;-77
2023/09/01 05:53:19;;;;;;;2.80;1.45;;;15.50;99.90;;;;;;5036212;28;20492;-77
2023/09/01 05:55:44;;;;;;;9.73;1.95;;;15.50;99.90;;;;;;5035813;28;20061;-77
2023/09/01 05:58:10;;;;;;;1.70;1.38;;;15.50;99.90;;;;;;5034600;28;20021;-76
2023/09/01 06:00:35;;;;;;;1.75;1.65;;;15.60;99.90;;;;;;5017630;28;20029;-76
2023/09/01 06:03:01;;;;;;;2.65;1.42;;;15.60;99.90;;;;;;5035202;28;20647;-75
2023/09/01 06:05:27;;;;;;;1.73;1.20;;;15.70;99.90;;;;;;5017325;28;20109;-75
2023/09/01 06:07:52;;;;;;;3.47;1.40;;;15.70;99.90;;;;;;5036097;28;20166;-76
2023/09/01 06:10:18;;;;;;;4.18;2.10;;;15.60;99.90;;;;;;5033937;28;20067;-76
2023/09/01 06:12:43;;;;;;;1.55;1.33;;;15.70;99.90;;;;;;5034472;28;20631;-76
2023/09/01 06:15:09;;;;;;;3.28;1.48;;;15.70;99.90;;;;;;5033349;28;20025;-76
2023/09/01 06:17:37;;;;;;;2.30;1.60;;;15.70;99.90;;;;;;5015388;28;20036;-77
2023/09/01 06:20:04;;;;;;;3.13;1.33;;;15.70;99.90;;;;;;5033674;28;20029;-77
2023/09/01 06:22:30;;;;;;;1.75;1.50;;;15.80;99.90;;;;;;5033242;28;20017;-76
2023/09/01 06:24:56;;;;;;;2.70;2.25;;;15.80;99.90;;;;;;5015295;28;20030;-77
2023/09/01 06:27:21;;;;;;;3.22;2.00;;;15.80;99.90;;;;;;5015064;28;20035;-77
2023/09/01 06:29:47;;;;;;;6.22;2.85;;;16.00;99.90;;;;;;5015078;28;20483;-77
2023/09/01 06:32:13;;;;;;;3.13;2.40;;;16.00;99.90;;;;;;5032979;28;20058;-76
2023/09/01 06:34:39;;;;;;;3.78;1.90;;;16.10;99.90;;;;;;5032951;28;20056;-77
2023/09/01 06:37:04;;;;;;;2.60;1.85;;;16.20;99.90;;;;;;5015480;28;20026;-76
2023/09/01 06:39:30;;;;;;;4.88;2.78;;;16.10;99.90;;;;;;5015111;28;20022;-75
2023/09/01 06:41:56;;;;;;;5.40;2.17;;;16.30;99.90;;;;;;5033846;28;20064;-76
2023/09/01 06:44:22;;;;;;;3.10;1.83;;;16.40;99.90;;;;;;5032534;28;20552;-75
2023/09/01 06:46:49;;;;;;;2.47;1.98;;;16.30;99.90;;;;;;5044185;28;20013;-76
2023/09/01 06:49:15;;;;;;;4.63;2.45;;;16.40;99.90;;;;;;5040559;28;20025;-76
2023/09/01 06:51:41;;;;;;;3.65;2.10;;;16.60;99.90;;;;;;5042171;28;20020;-76
2023/09/01 06:54:06;;;;;;;2.70;2.08;;;16.60;99.90;;;;;;5038208;28;20028;-79
2023/09/01 06:56:32;;;;;;;3.58;2.08;;;16.70;99.90;;;;;;5033634;28;20029;-76
2023/09/01 06:58:58;;;;;;;2.28;2.05;;;16.70;99.90;;;;;;5015745;28;20107;-77
2023/09/01 07:01:23;;;;;;;2.90;1.98;;;16.90;99.90;;;;;;5019276;28;20025;-78
2023/09/01 07:03:50;;;;;;;4.55;2.20;;;17.00;99.90;;;;;;5040676;28;20018;-75
2023/09/01 07:06:16;;;;;;;2.17;1.98;;;17.20;99.90;;;;;;5032749;28;20017;-75
2023/09/01 07:08:41;;;;;;;3.22;1.85;;;17.30;99.90;;;;;;5014167;28;20142;-75
2023/09/01 07:11:10;;;;;;;3.08;2.28;;;17.40;99.90;;;;;;5032334;28;20036;-75
2023/09/01 07:13:36;;;;;;;2.38;1.70;;;17.50;99.90;;;;;;5014611;28;20022;-74
2023/09/01 07:16:01;;;;;;;2.15;1.98;;;17.50;99.90;;;;;;5014346;28;20034;-76
2023/09/01 07:18:28;;;;;;;3.15;2.20;;;18.00;99.90;;;;;;5031643;28;20044;-75
2023/09/01 07:20:58;;;;;;;1.70;1.60;;;18.20;99.90;;;;;;5013970;28;20022;-75
2023/09/01 07:23:23;;;;;;;4.47;1.75;;;18.30;99.90;;;;;;5032095;28;20046;-75
2023/09/01 07:25:49;;;;;;;3.20;2.25;;;18.50;99.90;;;;;;5032280;28;20115;-75
2023/09/01 07:28:15;;;;;;;2.30;2.13;;;18.70;99.90;;;;;;5032368;28;20028;-76
2023/09/01 07:30:40;;;;;;;1.50;1.40;;;18.70;99.90;;;;;;5032963;28;20111;-75
2023/09/01 07:33:06;;;;;;;2.13;1.77;;;18.80;99.90;;;;;;5033284;28;20117;-75
2023/09/01 07:35:32;;;;;;;1.98;1.63;;;18.80;99.90;;;;;;5033578;28;20028;-74
2023/09/01 07:37:58;;;;;;;2.17;1.98;;;18.80;99.90;;;;;;5034206;28;20113;-75
2023/09/01 07:40:23;;;;;;;1.48;1.15;;;18.90;99.90;;;;;;5037427;28;20049;-75
2023/09/01 07:42:49;;;;;;;2.10;1.85;;;18.90;99.90;;;;;;5037768;28;20025;-75
2023/09/01 07:45:15;;;;;;;1.88;1.55;;;18.90;99.90;;;;;;5036785;28;20068;-75
2023/09/01 07:47:42;;;;;;;1.55;1.45;;;19.00;99.90;;;;;;5019389;28;20109;-76
2023/09/01 07:50:08;;;;;;;3.00;1.48;;;19.20;99.90;;;;;;5036397;28;20032;-76
2023/09/01 07:52:34;;;;;;;1.75;1.65;;;19.40;99.90;;;;;;5036436;28;20033;-76
2023/09/01 07:55:00;;;;;;;2.67;1.50;;;19.40;99.90;;;;;;5035956;28;20025;-75
2023/09/01 07:57:25;;;;;;;2.70;1.20;;;19.60;99.90;;;;;;5017722;28;20028;-76
2023/09/01 07:59:51;;;;;;;1.25;1.15;;;19.90;99.90;;;;;;5018228;28;20033;-76
2023/09/01 08:02:16;;;;;;;2.33;1.13;;;20.00;99.90;;;;;;5035786;28;20033;-75
2023/09/01 08:04:43;;;;;;;2.70;1.00;;;20.10;99.90;;;;;;5036317;28;20096;-76
2023/09/01 08:07:08;;;;;;;1.38;1.23;;;20.10;99.90;;;;;;5036555;28;20029;-75
2023/09/01 08:09:34;;;;;;;1.70;1.00;;;20.10;99.90;;;;;;5018217;28;20029;-74
2023/09/01 08:12:00;;;;;;;1.48;1.08;;;20.20;99.90;;;;;;5018359;28;20025;-75
2023/09/01 08:14:25;;;;;;;1.63;1.38;;;20.30;99.90;;;;;;5036466;28;20055;-75
2023/09/01 08:16:51;;;;;;;1.88;1.30;;;20.40;99.90;;;;;;5036704;28;20025;-74
2023/09/01 08:19:16;;;;;;;1.00;1.00;;;20.40;99.90;;;;;;5036645;28;20030;-75
2023/09/01 08:21:42;;;;;;;1.52;1.35;;;20.40;99.90;;;;;;5036367;28;20018;-75
2023/09/01 08:24:08;;;;;;;1.33;1.23;;;20.60;99.90;;;;;;5035728;28;20076;-79
2023/09/01 08:26:35;;;;;;;1.95;1.42;;;20.70;99.90;;;;;;5035362;28;20441;-77
2023/09/01 08:29:01;;;;;;;1.83;1.05;;;20.80;99.90;;;;;;5018248;28;20029;-77
2023/09/01 08:31:26;;;;;;;0.95;0.95;;;20.90;99.90;;;;;;5019318;28;20052;-77
2023/09/01 08:33:53;;;;;;;2.25;1.17;;;21.10;99.90;;;;;;5037348;28;20034;-75
2023/09/01 08:36:21;;;;;;;1.15;1.00;;;21.20;99.90;;;;;;5035169;28;20021;-74
2023/09/01 08:38:46;;;;;;;1.30;1.20;;;21.30;99.90;;;;;;5017013;28;20120;-75
2023/09/01 08:41:12;;;;;;;1.25;1.20;;;21.40;99.90;;;;;;5034737;28;20056;-75
2023/09/01 08:43:38;;;;;;;0.85;0.85;;;21.50;99.90;;;;;;5016972;28;20022;-75
2023/09/01 08:46:05;;;;;;;1.83;1.10;;;21.40;99.90;;;;;;5016696;28;20018;-75
2023/09/01 08:48:34;;;;;;;1.25;1.13;;;21.30;99.90;;;;;;5016486;28;20029;-77
2023/09/01 08:51:00;;;;;;;1.27;1.17;;;21.30;99.90;;;;;;5015173;28;20492;-77
2023/09/01 08:53:26;;;;;;;1.55;1.40;;;21.50;99.90;;;;;;5017485;28;20036;-75
2023/09/01 08:55:55;;;;;;;0.95;0.95;;;21.70;99.90;;;;;;5017881;28;20112;-76
2023/09/01 08:58:21;;;;;;;1.20;1.10;;;21.80;99.90;;;;;;5036234;28;20105;-75
2023/09/01 09:00:48;;;;;;;1.13;1.02;;;22.30;99.90;;;;;;5056299;22;20096;-79
2023/09/01 09:03:16;;;;;;;1.55;0.90;;;22.50;99.90;;;;;;5018169;28;20439;-78
2023/09/01 09:05:44;;;;;;;0.60;0.52;;;22.70;99.90;;;;;;5018229;28;20029;-79
2023/09/01 09:08:10;;;;;;;1.55;1.05;;;22.70;99.30;;;;;;5036006;28;20022;-79
2023/09/01 09:10:43;;;;;;;1.58;1.08;;;22.80;99.90;;;;;;5017089;28;20026;-79
2023/09/01 09:13:23;;;;;;;1.63;0.80;;;22.80;99.40;;;;;;4999076;28;20049;-79
2023/09/01 09:16:14;;;;;;;2.85;0.80;;;22.80;99.90;;;;;;4999334;28;20022;-80
2023/09/01 09:18:44;;;;;;;1.20;1.10;;;22.80;99.90;;;;;;5016440;28;20037;-79
2023/09/01 09:21:23;;;;;;;1.10;1.00;;;22.80;98.90;;;;;;4998923;28;20048;-79
2023/09/01 09:23:49;;;;;;;2.70;1.65;;;22.80;99.00;;;;;;4999140;28;20025;-79
2023/09/01 09:26:15;;;;;;;1.20;1.10;;;22.90;98.90;;;;;;4999697;28;20396;-78
2023/09/01 09:28:41;;;;;;;1.00;1.00;;;22.90;98.10;;;;;;4998676;28;20026;-80
2023/09/01 09:31:06;;;;;;;0.88;0.88;;;23.00;97.70;;;;;;4999219;28;20550;-79
2023/09/01 09:33:34;;;;;;;1.27;0.90;;;23.00;97.10;;;;;;5016719;28;20083;-79
2023/09/01 09:36:03;;;;;;;1.63;1.00;;;23.10;97.60;;;;;;5016044;28;20037;-78
2023/09/01 09:38:43;;;;;;;1.83;0.82;;;23.10;96.70;;;;;;5016347;28;20024;-78
2023/09/01 09:41:09;;;;;;;1.67;1.00;;;23.20;95.90;;;;;;4998689;28;20024;-79
2023/09/01 09:43:45;;;;;;;1.17;0.80;;;23.30;95.10;;;;;;5016320;28;20018;-79
2023/09/01 09:46:11;;;;;;;0.90;0.90;;;23.40;94.50;;;;;;5016731;28;20392;-79
2023/09/01 09:48:38;;;;;;;1.95;1.20;;;23.40;92.90;;;;;;4998595;28;20026;-79
2023/09/01 09:51:07;;;;;;;1.65;0.57;;;23.30;94.00;;;;;;4997865;28;20040;-79
2023/09/01 09:53:38;;;;;;;0.90;0.63;;;23.30;94.10;;;;;;5016441;28;20030;-80
2023/09/01 09:56:30;;;;;;;0.80;0.75;;;23.40;94.40;;;;;;4999176;28;20029;-80
2023/09/01 09:59:02;;;;;;;1.38;0.90;;;23.50;94.30;;;;;;5005378;28;20038;-79
2023/09/01 10:01:31;;;;;;;0.80;0.73;;;23.70;92.80;;;;;;4998404;28;20128;-79
2023/09/01 10:03:58;;;;;;;0.60;0.60;;;23.70;92.80;;;;;;5017559;28;20018;-79
2023/09/01 10:06:24;;;;;;;0.73;0.70;;;23.70;92.20;;;;;;5000490;28;20525;-81
2023/09/01 10:08:51;;;;;;;0.98;0.80;;;23.80;90.90;;;;;;4999913;28;20073;-80
2023/09/01 10:11:17;;;;;;;1.25;1.13;;;23.80;90.30;;;;;;5017927;28;20025;-80
2023/09/01 10:13:47;;;;;;;4.65;0.93;;;23.70;90.90;;;;;;5017711;28;20092;-80
2023/09/01 10:16:14;;;;;;;1.70;0.82;;;23.70;92.30;;;;;;5017490;28;20037;-80
2023/09/01 10:18:43;;;;;;;1.73;0.90;;;23.80;91.90;;;;;;5017185;28;20041;-81
2023/09/01 10:21:09;;;;;;;0.65;0.52;;;23.90;91.70;;;;;;5000524;28;20088;-81
2023/09/01 10:23:35;;;;;;;0.68;0.68;;;23.90;90.50;;;;;;4999836;28;20034;-80
2023/09/01 10:26:24;;;;;;;0.60;0.60;;;23.90;90.90;;;;;;5017489;28;20053;-79
2023/09/01 10:29:03;;;;;;;1.95;1.23;;;24.00;90.20;;;;;;4999814;28;20087;-81
2023/09/01 10:31:30;;;;;;;1.10;0.98;;;24.00;90.70;;;;;;5017838;28;20026;-81
2023/09/01 10:34:15;;;;;;;0.70;0.70;;;24.20;91.20;;;;;;4999990;28;20034;-81
2023/09/01 10:36:45;;;;;;;0.60;0.60;;;24.30;89.60;;;;;;5017157;28;20393;-80
2023/09/01 10:39:30;;;;;;;0.60;0.60;;;24.40;90.00;;;;;;4997196;28;20037;-80
2023/09/01 10:42:00;;;;;;;2.53;1.10;;;24.30;89.00;;;;;;5014473;28;20030;-81
2023/09/01 10:44:43;;;;;;;0.80;0.80;;;24.10;90.00;;;;;;5014665;28;20029;-79
2023/09/01 10:47:31;;;;;;;0.90;0.85;;;24.10;90.90;;;;;;5014567;28;20101;-79
2023/09/01 10:50:01;;;;;;;2.88;0.82;;;24.20;92.80;;;;;;4995269;28;20029;-81
2023/09/01 10:52:28;;;;;;;1.10;1.00;;;24.30;90.50;;;;;;4996760;28;20403;-81
2023/09/01 10:54:59;;;;;;;1.00;0.60;;;24.40;89.50;;;;;;5014802;28;20037;-80
2023/09/01 10:57:41;;;;;;;0.95;0.70;;;24.50;88.20;;;;;;4995330;28;20057;-81
2023/09/01 11:00:29;;;;;;;2.03;0.80;;;24.60;89.70;;;;;;4994823;28;20084;-81
2023/09/01 11:03:30;;;;;;;2.78;0.93;;;24.80;88.60;;;;;;4996258;28;20038;-81
2023/09/01 11:05:57;;;;;;;0.63;0.63;;;25.00;86.90;;;;;;4996449;28;20068;-81
2023/09/01 11:08:25;;;;;;;1.33;0.82;;;25.10;86.80;;;;;;4996181;28;20030;-82
2023/09/01 11:10:55;;;;;;;0.70;0.70;;;25.20;87.30;;;;;;5014297;28;20451;-81
2023/09/01 11:13:20;;;;;;;0.73;0.73;;;25.40;86.60;;;;;;4997938;28;20022;-80
2023/09/01 11:15:47;;;;;;;1.25;0.77;;;25.30;88.80;;;;;;5000657;28;20049;-81
2023/09/01 11:18:24;;;;;;;0.80;0.70;;;25.40;88.90;;;;;;5017897;28;20068;-80
2023/09/01 11:20:54;;;;;;;2.85;0.70;;;25.50;86.30;;;;;;5018043;28;20049;-81
2023/09/01 11:23:24;;;;;;;0.85;0.85;;;25.50;87.10;;;;;;5018509;28;20064;-81
2023/09/01 11:26:00;;;;;;;0.88;0.60;;;25.30;81.80;;;;;;5018869;28;20045;-81
2023/09/01 11:28:27;;;;;;;0.50;0.50;;;25.40;80.00;;;;;;4999477;28;20030;-81
2023/09/01 11:31:03;;;;;;;1.60;0.63;;;25.40;81.70;;;;;;5018180;28;20034;-81
2023/09/01 11:33:33;;;;;;;1.35;0.68;;;25.10;82.00;;;;;;5000496;28;20036;-80
2023/09/01 11:36:12;;;;;;;0.50;0.50;;;25.20;80.90;;;;;;5018228;28;20022;-82
2023/09/01 11:38:39;;;;;;;1.02;0.70;;;24.90;79.20;;;;;;5017759;28;20029;-80
2023/09/01 11:41:08;;;;;;;2.03;0.70;;;24.80;80.50;;;;;;5018048;28;20030;-81
2023/09/01 11:43:35;;;;;;;0.65;0.65;;;24.80;78.90;;;;;;5000753;28;20535;-82
2023/09/01 11:46:00;;;;;;;3.28;0.73;;;24.50;81.00;;;;;;5000261;28;20030;-81
2023/09/01 11:48:30;;;;;;;0.50;0.50;;;24.60;81.50;;;;;;4999812;28;20029;-80
2023/09/01 11:50:58;;;;;;;0.93;0.50;;;24.60;79.50;;;;;;5002752;28;20096;-81
2023/09/01 11:53:27;;;;;;;0.50;0.50;;;24.70;78.70;;;;;;5000869;28;20120;-80
2023/09/01 11:55:58;;;;;;;0.50;0.50;;;24.70;78.80;;;;;;5018151;28;20038;-80
2023/09/01 11:58:25;;;;;;;0.50;0.50;;;24.80;83.10;;;;;;4999470;28;20030;-81
2023/09/01 12:00:51;;;;;;;1.27;0.52;;;24.90;80.90;;;;;;4999692;28;20025;-80
2023/09/01 12:03:22;;;;;;;1.15;0.88;;;25.00;83.10;;;;;;5000059;28;20454;-81
2023/09/01 12:05:48;;;;;;;1.27;0.60;;;25.10;83.40;;;;;;5000153;28;20029;-81
2023/09/01 12:08:14;;;;;;;0.90;0.73;;;25.10;84.20;;;;;;5017245;28;20392;-80
2023/09/01 12:10:39;;;;;;;0.57;0.57;;;25.20;84.60;;;;;;5000085;28;20030;-81
2023/09/01 12:13:12;;;;;;;0.63;0.55;;;25.40;79.20;;;;;;5001560;28;20036;-81
2023/09/01 12:15:54;;;;;;;2.15;0.63;;;25.50;77.30;;;;;;4999809;28;20468;-81
2023/09/01 12:18:33;;;;;;;0.98;0.73;;;25.30;78.40;;;;;;5017222;28;20498;-80
2023/09/01 12:21:08;;;;;;;0.60;0.60;;;25.40;80.70;;;;;;5000130;28;20029;-81
2023/09/01 12:23:42;;;;;;;1.90;0.80;;;25.30;79.30;;;;;;4999569;28;20033;-81
2023/09/01 12:26:08;;;;;;;0.52;0.52;;;25.30;80.80;;;;;;4999728;28;20029;-81
2023/09/01 12:28:36;;;;;;;1.20;0.50;;;25.10;80.60;;;;;;4999903;28;20030;-82
2023/09/01 12:31:03;;;;;;;0.43;0.43;;;25.30;81.10;;;;;;5017128;28;20053;-83
2023/09/01 12:33:29;;;;;;;0.55;0.40;;;25.30;76.10;;;;;;4999164;28;20480;-82
2023/09/01 12:35:54;;;;;;;0.75;0.40;;;25.40;76.30;;;;;;5016798;28;20058;-82
2023/09/01 12:38:21;;;;;;;2.80;0.38;;;25.50;73.00;;;;;;5017595;28;20022;-82
2023/09/01 12:40:47;;;;;;;0.88;0.50;;;25.50;72.60;;;;;;5017064;28;20447;-83
2023/09/01 12:43:13;;;;;;;0.30;0.30;;;25.50;73.30;;;;;;5018904;28;20026;-82
2023/09/01 12:45:40;;;;;;;1.05;0.38;;;25.50;75.10;;;;;;5017805;28;20026;-82
2023/09/01 12:48:06;;;;;;;0.60;0.60;;;25.60;74.50;;;;;;4999789;28;20021;-82
2023/09/01 12:50:31;;;;;;;0.40;0.40;;;25.80;72.80;;;;;;5017465;28;20014;-82
2023/09/01 12:52:58;;;;;;;0.40;0.40;;;25.80;70.30;;;;;;4999642;28;20022;-81